Time;durP1;ratioP1;P1;durP2;ratioP2;P2;SDS_P1;SDS_P2;PMS_P1;PMS_P2;Temp;Humidity;BMP_temperature;BMP_pressure;BME280_temperature;BME280_humidity;BME280_pressure;Samples;Min_cycle;Max_cycle;Signal;HPM_P1;HPM_P2
2021/05/06 00:04:10;;;;;;;;;;;;;;;4.97;96.91;99352.41;6180442;28;19925;-73
2021/05/06 00:10:55;;;;;;;;;;;;;;;4.97;96.72;99355.13;6213122;28;19923;-72
2021/05/06 00:34:08;;;;;;;;;;;;;;;4.88;98.61;99347.47;6204969;28;19921;-73
2021/05/06 00:37:14;;;;;;;;;;;;;;;4.94;98.79;99336.63;6212919;28;19917;-72
2021/05/06 00:40:19;;;;;;;;;;;;;;;5.02;98.98;99355.31;6214227;28;19952;-72
2021/05/06 00:43:55;;;;;;;;;;;;;;;4.89;99.40;99344.56;6212836;28;20264;-72
2021/05/06 00:54:15;;;;;;;;;;;;;;;4.93;99.61;99343.06;6213655;28;19958;-73
2021/05/06 00:57:22;;;;;;;;;;;;;;;4.98;100.00;99348.66;6214130;28;19917;-72
2021/05/06 01:00:47;;;;;;;;;;;;;;;4.94;100.00;99342.03;6212926;28;20197;-72
2021/05/06 01:04:07;;;;;;;;;;;;;;;4.95;100.00;99332.91;6212697;28;20233;-72
2021/05/06 01:07:24;;;;;;;;;;;;;;;5.05;100.00;99335.94;6213360;28;19972;-72
2021/05/06 01:10:52;;;;;;;;;;;;;;;5.01;100.00;99337.41;6195999;28;19924;-72
2021/05/06 01:14:01;;;;;;;;;;;;;;;4.97;100.00;99336.19;6212270;28;19921;-76
2021/05/06 01:17:22;;;;;;;;;;;;;;;4.90;100.00;99335.41;6212130;28;19953;-72
2021/05/06 01:20:26;;;;;;;;;;;;;;;5.03;100.00;99324.50;6213713;28;19973;-72
2021/05/06 01:23:32;;;;;;;;;;;;;;;5.22;100.00;99328.13;6195441;28;19918;-73
2021/05/06 01:26:38;;;;;;;;;;;;;;;5.14;100.00;99319.44;6212271;28;20000;-72
2021/05/06 01:29:45;;;;;;;;;;;;;;;5.13;100.00;99318.63;6195051;28;19921;-73
2021/05/06 01:32:51;;;;;;;;;;;;;;;5.17;100.00;99321.72;6195419;28;20236;-73
2021/05/06 01:35:57;;;;;;;;;;;;;;;5.05;100.00;99317.03;6195160;28;20299;-72
2021/05/06 01:39:19;;;;;;;;;;;;;;;5.06;100.00;99318.66;6217975;28;19975;-72
2021/05/06 01:42:24;;;;;;;;;;;;;;;5.01;100.00;99315.78;6199642;28;19975;-73
2021/05/06 01:45:47;;;;;;;;;;;;;;;5.04;100.00;99323.47;6215600;28;20233;-73
2021/05/06 01:49:12;;;;;;;;;;;;;;;4.99;100.00;99312.47;6217386;28;19953;-72
2021/05/06 01:59:06;;;;;;;;;;;;;;;5.14;100.00;99316.75;6199673;28;19995;-72
2021/05/06 02:02:10;;;;;;;;;;;;;;;5.20;100.00;99313.16;6199859;28;19965;-72
2021/05/06 02:05:15;;;;;;;;;;;;;;;5.11;100.00;99300.97;6199383;28;20264;-73
2021/05/06 02:08:19;;;;;;;;;;;;;;;5.27;100.00;99300.44;6198619;28;20256;-72
2021/05/06 02:11:25;;;;;;;;;;;;;;;5.22;100.00;99311.06;6215458;28;19918;-72
2021/05/06 02:14:45;;;;;;;;;;;;;;;5.13;100.00;99307.00;6215716;28;19980;-73
2021/05/06 02:17:49;;;;;;;;;;;;;;;5.27;100.00;99297.72;6199424;28;19918;-73
2021/05/06 02:20:52;;;;;;;;;;;;;;;5.23;100.00;99301.94;6216760;28;19960;-72
2021/05/06 02:23:56;;;;;;;;;;;;;;;5.09;100.00;99295.78;6198480;28;19930;-72
2021/05/06 02:27:00;;;;;;;;;;;;;;;5.12;100.00;99297.22;6214542;28;19960;-73
2021/05/06 02:30:04;;;;;;;;;;;;;;;5.00;100.00;99297.94;6215457;28;19917;-73
2021/05/06 02:33:09;;;;;;;;;;;;;;;5.14;100.00;99308.63;6215342;28;20090;-73
2021/05/06 02:36:13;;;;;;;;;;;;;;;5.21;100.00;99293.22;6216058;28;19918;-73
2021/05/06 02:39:16;;;;;;;;;;;;;;;5.19;100.00;99293.41;6216212;28;19927;-73
2021/05/06 02:42:19;;;;;;;;;;;;;;;5.38;100.00;99288.91;6216422;28;19985;-73
2021/05/06 02:45:22;;;;;;;;;;;;;;;5.25;100.00;99289.00;6215636;28;19925;-72
2021/05/06 02:48:26;;;;;;;;;;;;;;;5.23;100.00;99285.69;6215602;28;19936;-73
2021/05/06 02:51:29;;;;;;;;;;;;;;;5.09;100.00;99295.78;6216142;28;19917;-72
2021/05/06 02:54:39;;;;;;;;;;;;;;;5.15;100.00;99297.63;6215864;28;19953;-72
2021/05/06 02:57:47;;;;;;;;;;;;;;;5.08;100.00;99292.25;6215842;28;19918;-72
2021/05/06 03:04:11;;;;;;;;;;;;;;;5.03;100.00;99294.78;6215409;28;19980;-73
2021/05/06 03:07:18;;;;;;;;;;;;;;;5.04;100.00;99299.16;6215886;28;19917;-73
2021/05/06 03:10:32;;;;;;;;;;;;;;;5.05;100.00;99300.81;6215421;28;19917;-73
2021/05/06 03:23:36;;;;;;;;;;;;;;;5.24;100.00;99292.78;6214518;28;19924;-72
2021/05/06 03:26:39;;;;;;;;;;;;;;;5.15;100.00;99299.47;6214053;28;20213;-72
2021/05/06 03:29:50;;;;;;;;;;;;;;;5.20;100.00;99291.53;6213937;28;19980;-72
2021/05/06 03:33:00;;;;;;;;;;;;;;;5.22;100.00;99289.44;6214933;28;20013;-72
2021/05/06 03:43:02;;;;;;;;;;;;;;;5.17;100.00;99297.38;6213620;28;20260;-72
2021/05/06 04:03:44;;;;;;;;;;;;;;;5.01;100.00;99304.97;6214386;28;19918;-73
2021/05/06 04:17:09;;;;;;;;;;;;;;;5.06;100.00;99302.44;6190241;28;19918;-73
2021/05/06 04:27:03;;;;;;;;;;;;;;;5.16;100.00;99309.25;6214344;28;20004;-72
2021/05/06 04:30:20;;;;;;;;;;;;;;;5.01;100.00;99315.78;6212854;28;19918;-72
2021/05/06 04:36:53;;;;;;;;;;;;;;;5.05;100.00;99317.03;6214041;28;19918;-72
2021/05/06 04:39:58;;;;;;;;;;;;;;;5.18;100.00;99309.88;6212746;28;20212;-72
2021/05/06 04:43:37;;;;;;;;;;;;;;;5.19;100.00;99311.53;6212794;28;19917;-72
2021/05/06 04:56:58;;;;;;;;;;;;;;;5.10;100.00;99323.66;6212458;28;19961;-72
2021/05/06 05:03:39;;;;;;;;;;;;;;;5.16;99.75;99336.28;6213596;28;19924;-73
2021/05/06 05:06:49;;;;;;;;;;;;;;;5.10;100.00;99329.06;6212441;28;19921;-73
2021/05/06 05:10:01;;;;;;;;;;;;;;;5.12;100.00;99326.94;6212398;28;19918;-73
2021/05/06 05:13:18;;;;;;;;;;;;;;;5.11;99.84;99328.00;6217888;28;19940;-73
2021/05/06 05:19:58;;;;;;;;;;;;;;;4.98;100.00;99337.03;6216854;28;19941;-73
2021/05/06 05:23:28;;;;;;;;;;;;;;;4.99;100.00;99344.91;6217977;28;19952;-72
2021/05/06 05:26:32;;;;;;;;;;;;;;;5.06;100.00;99339.47;6217482;28;19966;-72
2021/05/06 05:29:35;;;;;;;;;;;;;;;5.17;100.00;99340.63;6199657;28;20011;-72
2021/05/06 05:32:37;;;;;;;;;;;;;;;5.17;100.00;99329.81;6216570;28;20142;-73
2021/05/06 05:35:43;;;;;;;;;;;;;;;5.28;100.00;99326.44;6217439;28;19926;-72
2021/05/06 05:38:53;;;;;;;;;;;;;;;5.21;99.34;99336.47;6217585;28;19918;-72
2021/05/06 05:46:01;;;;;;;;;;;;;;;5.22;98.99;99332.69;6215313;28;19925;-73
2021/05/06 05:55:48;;;;;;;;;;;;;;;5.28;100.00;99321.03;6217051;28;19996;-72
2021/05/06 05:58:52;;;;;;;;;;;;;;;5.32;99.78;99322.22;6217200;28;19918;-73
2021/05/06 06:01:54;;;;;;;;;;;;;;;5.26;99.46;99323.97;6216090;28;20224;-73
2021/05/06 06:04:58;;;;;;;;;;;;;;;5.26;100.00;99328.53;6216895;28;19918;-73
2021/05/06 06:08:00;;;;;;;;;;;;;;;5.30;100.00;99324.31;6216461;28;19917;-73
2021/05/06 06:11:03;;;;;;;;;;;;;;;5.49;99.13;99331.47;6215791;28;20252;-73
2021/05/06 06:14:08;;;;;;;;;;;;;;;5.52;99.65;99333.75;6216909;28;19918;-72
2021/05/06 06:17:12;;;;;;;;;;;;;;;5.40;100.00;99336.31;6216443;28;19917;-73
2021/05/06 06:20:16;;;;;;;;;;;;;;;5.52;98.93;99333.75;6215475;28;20153;-72
2021/05/06 06:23:19;;;;;;;;;;;;;;;5.32;99.58;99333.03;6215191;28;19953;-70
2021/05/06 06:26:22;;;;;;;;;;;;;;;5.36;100.00;99334.28;6216282;28;19957;-69
2021/05/06 06:29:30;;;;;;;;;;;;;;;5.46;99.04;99329.19;6216630;28;19917;-72
2021/05/06 06:32:33;;;;;;;;;;;;;;;5.33;99.45;99337.41;6215606;28;19941;-72
2021/05/06 06:35:36;;;;;;;;;;;;;;;5.32;99.61;99343.84;6215501;28;20252;-73
2021/05/06 06:38:39;;;;;;;;;;;;;;;5.46;98.86;99337.31;6215214;28;20197;-72
2021/05/06 06:41:42;;;;;;;;;;;;;;;5.63;99.09;99339.25;6216214;28;19918;-72
2021/05/06 06:44:46;;;;;;;;;;;;;;;5.58;97.57;99343.66;6216181;28;19952;-72
2021/05/06 06:47:53;;;;;;;;;;;;;;;5.50;97.62;99335.81;6215747;28;19918;-72
2021/05/06 06:50:55;;;;;;;;;;;;;;;5.50;97.99;99341.22;6215908;28;19918;-73
2021/05/06 06:53:58;;;;;;;;;;;;;;;5.46;97.25;99340.03;6215839;28;19917;-73
2021/05/06 06:57:01;;;;;;;;;;;;;;;5.43;97.68;99353.97;6215741;28;19917;-73
2021/05/06 07:00:06;;;;;;;;;;;;;;;5.43;97.76;99351.28;6214993;28;19977;-73
2021/05/06 07:03:15;;;;;;;;;;;;;;;5.42;96.49;99363.13;6215827;28;19918;-73
2021/05/06 07:06:18;;;;;;;;;;;;;;;5.31;96.80;99364.69;6214950;28;19984;-72
2021/05/06 07:09:21;;;;;;;;;;;;;;;5.21;97.78;99352.69;6214512;28;19917;-72
2021/05/06 07:12:23;;;;;;;;;;;;;;;5.29;97.50;99355.13;6215456;28;19918;-72
2021/05/06 07:15:27;;;;;;;;;;;;;;;5.26;97.98;99366.38;6215021;28;19976;-72
2021/05/06 07:18:31;;;;;;;;;;;;;;;5.37;98.06;99369.19;6215517;28;19918;-72
2021/05/06 07:21:34;;;;;;;;;;;;;;;5.43;98.43;99372.91;6215331;28;19917;-72
2021/05/06 07:24:37;;;;;;;;;;;;;;;5.38;97.07;99375.44;6214242;28;19932;-73
2021/05/06 07:27:42;;;;;;;;;;;;;;;5.33;97.57;99372.56;6214142;28;19977;-72
2021/05/06 07:30:49;;;;;;;;;;;;;;;5.35;97.71;99374.00;6214628;28;19924;-72
2021/05/06 07:33:55;;;;;;;;;;;;;;;5.33;98.66;99377.97;6213868;28;19918;-72
2021/05/06 07:37:01;;;;;;;;;;;;;;;5.34;98.16;99376.94;6214446;28;20036;-72
2021/05/06 07:40:07;;;;;;;;;;;;;;;5.30;97.99;99383.81;6213963;28;20217;-71
2021/05/06 07:43:14;;;;;;;;;;;;;;;5.35;98.42;99381.28;6214653;28;19940;-72
2021/05/06 07:46:20;;;;;;;;;;;;;;;5.40;96.64;99384.16;6214391;28;19917;-72
2021/05/06 07:49:28;;;;;;;;;;;;;;;5.45;97.20;99387.03;6214027;28;19918;-71
2021/05/06 07:52:33;;;;;;;;;;;;;;;5.41;96.63;99388.53;6213416;28;19981;-72
2021/05/06 07:55:39;;;;;;;;;;;;;;;5.43;96.87;99400.78;6213305;28;20185;-72
2021/05/06 07:58:42;;;;;;;;;;;;;;;5.50;96.66;99389.91;6214321;28;19952;-72
2021/05/06 08:01:46;;;;;;;;;;;;;;;5.55;97.37;99403.59;6213262;28;19941;-72
2021/05/06 08:04:48;;;;;;;;;;;;;;;5.63;96.40;99400.63;6212931;28;20201;-72
2021/05/06 08:07:51;;;;;;;;;;;;;;;5.56;95.29;99407.97;6213350;28;20032;-72
2021/05/06 08:10:56;;;;;;;;;;;;;;;5.51;95.55;99407.81;6212999;28;20112;-72
2021/05/06 08:13:59;;;;;;;;;;;;;;;5.58;95.36;99411.28;6214277;28;19940;-72
2021/05/06 08:17:04;;;;;;;;;;;;;;;5.50;95.22;99401.56;6196457;28;20110;-72
2021/05/06 08:20:13;;;;;;;;;;;;;;;5.54;95.50;99418.19;6213009;28;20039;-72
2021/05/06 08:23:17;;;;;;;;;;;;;;;5.53;95.75;99411.13;6214393;28;19921;-72
2021/05/06 08:26:20;;;;;;;;;;;;;;;5.55;95.00;99414.44;6213104;28;19953;-73
2021/05/06 08:29:25;;;;;;;;;;;;;;;5.45;95.59;99431.16;6212908;28;20090;-72
2021/05/06 08:32:29;;;;;;;;;;;;;;;5.65;95.45;99425.59;6214195;28;19918;-72
2021/05/06 08:35:32;;;;;;;;;;;;;;;5.80;95.31;99422.59;6213697;28;20017;-73
2021/05/06 08:38:37;;;;;;;;;;;;;;;5.65;94.77;99431.00;6214103;28;19924;-73
2021/05/06 08:41:41;;;;;;;;;;;;;;;5.58;95.00;99424.81;6214354;28;19977;-73
2021/05/06 08:44:44;;;;;;;;;;;;;;;5.67;95.45;99428.94;6214012;28;19957;-73
2021/05/06 08:47:48;;;;;;;;;;;;;;;5.58;94.41;99435.63;6217963;28;19922;-73
2021/05/06 08:50:59;;;;;;;;;;;;;;;5.76;95.14;99443.84;6217450;28;19976;-73
2021/05/06 08:54:02;;;;;;;;;;;;;;;5.88;94.31;99436.69;6218539;28;19918;-73
2021/05/06 08:57:07;;;;;;;;;;;;;;;5.92;94.67;99443.34;6218612;28;20014;-73
2021/05/06 09:00:10;;;;;;;;;;;;;;;5.82;94.45;99453.78;6200007;28;20013;-73
2021/05/06 09:03:19;;;;;;;;;;;;;;;5.86;94.09;99452.31;6217411;28;20201;-73
2021/05/06 09:06:23;;;;;;;;;;;;;;;5.81;94.43;99457.53;6218355;28;19918;-73
2021/05/06 09:09:27;;;;;;;;;;;;;;;5.72;94.56;99452.63;6217028;28;19973;-73
2021/05/06 09:12:36;;;;;;;;;;;;;;;5.81;94.01;99465.66;6217179;28;20090;-72
2021/05/06 09:19:12;;;;;;;;;;;;;;;5.74;94.16;99466.75;6127246;23;19990;-72
2021/05/06 09:22:29;;;;;;;;;;;;;;;5.93;93.24;99472.03;6097663;29;20253;-73
2021/05/06 09:25:32;;;;;;;;;;;;;;;5.90;92.43;99469.81;6097860;29;19944;-73
2021/05/06 09:28:35;;;;;;;;;;;;;;;5.86;92.81;99487.50;6097834;29;19980;-73
2021/05/06 09:31:39;;;;;;;;;;;;;;;5.74;93.44;99483.81;6098106;29;19930;-73
2021/05/06 09:34:43;;;;;;;;;;;;;;;6.06;93.26;99493.59;6097640;29;20146;-72
2021/05/06 09:37:49;;;;;;;;;;;;;;;5.94;93.79;99492.66;6098820;29;19990;-73
2021/05/06 09:40:52;;;;;;;;;;;;;;;6.05;92.92;99505.50;6097516;29;20201;-73
2021/05/06 09:43:55;;;;;;;;;;;;;;;5.88;91.86;99517.88;6098686;29;19935;-73
2021/05/06 09:47:19;;;;;;;;;;;;;;;5.74;92.85;99510.06;6098037;29;19923;-73
2021/05/06 09:50:24;;;;;;;;;;;;;;;5.88;92.97;99511.66;6098139;29;19978;-73
2021/05/06 09:53:31;;;;;;;;;;;;;;;5.98;93.28;99518.25;6098036;29;19919;-73
2021/05/06 09:56:34;;;;;;;;;;;;;;;6.01;90.98;99512.38;6097073;29;19925;-72
2021/05/06 09:59:39;;;;;;;;;;;;;;;5.95;91.40;99523.28;6097535;29;19919;-72
2021/05/06 10:02:42;;;;;;;;;;;;;;;5.97;90.94;99522.00;6097163;29;20113;-72
2021/05/06 10:06:09;;;;;;;;;;;;;;;5.99;91.34;99524.47;6097519;29;19987;-72
2021/05/06 10:09:12;;;;;;;;;;;;;;;6.06;92.42;99528.81;6098109;29;19926;-72
2021/05/06 10:12:16;;;;;;;;;;;;;;;6.09;90.96;99525.66;6096743;29;20083;-72
2021/05/06 10:15:18;;;;;;;;;;;;;;;6.21;91.78;99533.91;6095671;29;19919;-73
2021/05/06 10:18:22;;;;;;;;;;;;;;;6.02;90.58;99535.72;6096208;29;19942;-73
2021/05/06 10:21:26;;;;;;;;;;;;;;;6.05;90.90;99546.13;6097033;29;19990;-73
2021/05/06 10:24:29;;;;;;;;;;;;;;;6.05;90.82;99540.69;6097466;29;19920;-72
2021/05/06 10:27:32;;;;;;;;;;;;;;;6.06;91.46;99539.63;6080389;29;19923;-72
2021/05/06 10:30:35;;;;;;;;;;;;;;;6.17;90.40;99544.34;6097570;29;19919;-73
2021/05/06 10:33:41;;;;;;;;;;;;;;;6.19;90.36;99536.81;6096195;29;20007;-73
2021/05/06 10:36:47;;;;;;;;;;;;;;;5.95;90.28;99555.75;6095983;29;20265;-73
2021/05/06 10:39:50;;;;;;;;;;;;;;;6.05;90.12;99556.94;6096953;29;20090;-72
2021/05/06 10:42:53;;;;;;;;;;;;;;;6.16;90.18;99556.22;6095831;29;20190;-72
2021/05/06 10:45:58;;;;;;;;;;;;;;;6.23;88.66;99557.03;6095825;29;19975;-73
2021/05/06 10:49:02;;;;;;;;;;;;;;;6.20;89.62;99565.56;6096996;29;19978;-73
2021/05/06 10:52:07;;;;;;;;;;;;;;;6.06;90.19;99564.00;6096772;29;19920;-73
2021/05/06 10:55:11;;;;;;;;;;;;;;;6.23;90.70;99567.03;6096947;29;20004;-73
2021/05/06 10:58:32;;;;;;;;;;;;;;;6.23;89.72;99569.72;6096831;29;19959;-72
2021/05/06 11:01:41;;;;;;;;;;;;;;;6.29;89.27;99575.09;6096608;29;19967;-73
2021/05/06 11:04:45;;;;;;;;;;;;;;;6.18;89.21;99585.81;6095690;29;19919;-73
2021/05/06 11:08:18;;;;;;;;;;;;;;;6.11;89.53;99588.53;6095206;29;19919;-72
2021/05/06 11:11:22;;;;;;;;;;;;;;;6.00;89.45;99591.97;6095192;29;19944;-73
2021/05/06 11:14:24;;;;;;;;;;;;;;;6.00;90.59;99597.38;6096364;29;19960;-73
2021/05/06 11:17:40;;;;;;;;;;;;;;;5.95;90.19;99591.78;6095416;29;19919;-72
2021/05/06 11:20:51;;;;;;;;;;;;;;;6.02;90.31;99599.84;6096161;29;19982;-72
2021/05/06 11:23:53;;;;;;;;;;;;;;;6.08;89.96;99588.16;6096031;29;19965;-72
2021/05/06 11:27:13;;;;;;;;;;;;;;;6.23;90.08;99608.47;6095371;29;20099;-71
2021/05/06 11:30:30;;;;;;;;;;;;;;;6.25;90.06;99600.97;6095257;29;20112;-73
2021/05/06 11:33:33;;;;;;;;;;;;;;;6.19;90.49;99618.06;6096537;29;19954;-72
2021/05/06 11:36:35;;;;;;;;;;;;;;;6.20;89.39;99608.06;6095003;29;19976;-72
2021/05/06 11:39:55;;;;;;;;;;;;;;;6.25;90.09;99611.78;6079353;29;19919;-73
2021/05/06 11:42:59;;;;;;;;;;;;;;;6.21;90.33;99615.97;6096203;29;20002;-73
2021/05/06 11:46:05;;;;;;;;;;;;;;;6.26;90.48;99618.03;6095729;29;19923;-72
2021/05/06 11:49:11;;;;;;;;;;;;;;;6.21;91.04;99617.88;6095895;29;19927;-73
2021/05/06 11:52:14;;;;;;;;;;;;;;;6.25;91.15;99622.63;6094601;29;20197;-73
2021/05/06 11:55:26;;;;;;;;;;;;;;;6.31;90.35;99620.94;6094833;29;19920;-72
2021/05/06 11:58:30;;;;;;;;;;;;;;;6.20;89.97;99625.16;6095425;29;19986;-73
2021/05/06 12:01:33;;;;;;;;;;;;;;;6.21;89.89;99626.81;6094436;29;20114;-73
2021/05/06 12:04:37;;;;;;;;;;;;;;;6.24;89.25;99631.78;6094190;29;20138;-72
2021/05/06 12:07:41;;;;;;;;;;;;;;;6.22;90.71;99639.31;6094485;29;19919;-72
2021/05/06 12:10:44;;;;;;;;;;;;;;;6.16;89.84;99629.34;6077917;29;20243;-72
2021/05/06 12:13:49;;;;;;;;;;;;;;;6.23;89.22;99634.72;6095265;29;20015;-73
2021/05/06 12:16:52;;;;;;;;;;;;;;;6.32;90.15;99634.25;6095295;29;19923;-72
2021/05/06 12:20:00;;;;;;;;;;;;;;;6.27;89.98;99636.78;6093647;29;19920;-72
2021/05/06 12:23:09;;;;;;;0.73;0.73;;;;;;;6.30;89.85;99636.34;6093499;29;20213;-72
2021/05/06 12:26:17;;;;;;;0.97;0.97;;;;;;;6.39;89.19;99653.19;6094418;29;20192;-72
2021/05/06 12:29:23;;;;;;;0.83;0.80;;;;;;;6.26;88.35;99645.97;6094055;29;20196;-72
2021/05/06 12:32:27;;;;;;;1.03;1.03;;;;;;;6.27;88.49;99653.03;6094044;29;20236;-71
2021/05/06 12:35:33;;;;;;;0.87;0.87;;;;;;;6.34;88.52;99646.75;6093298;29;20224;-71
2021/05/06 12:38:40;;;;;;;0.87;0.87;;;;;;;6.39;88.68;99671.31;6092836;29;20594;-71
2021/05/06 12:41:52;;;;;;;0.83;0.83;;;;;;;6.40;88.05;99656.69;6093873;29;20227;-71
2021/05/06 12:44:56;;;;;;;0.80;0.80;;;;;;;6.38;87.77;99658.78;6094039;29;20193;-72
2021/05/06 12:48:01;;;;;;;;;;;;;;;6.34;87.60;99668.41;6094576;29;20203;-72
2021/05/06 12:51:06;;;;;;;;;;;;;;;6.27;86.67;99669.28;6093684;29;20083;-72
2021/05/06 12:54:11;;;;;;;;;;;;;;;6.35;87.69;99675.47;6093346;29;20083;-73
2021/05/06 12:57:14;;;;;;;;;;;;;;;6.24;88.54;99674.28;6093292;29;19963;-73
2021/05/06 13:00:19;;;;;;;;;;;;;;;6.29;88.33;99675.31;6094510;29;19919;-72
2021/05/06 13:03:27;;;;;;;;;;;;;;;6.25;88.68;99676.78;6078277;29;19919;-73
2021/05/06 13:06:30;;;;;;;;;;;;;;;6.22;88.38;99687.22;6093684;29;19919;-72
2021/05/06 13:09:38;;;;;;;;;;;;;;;6.34;87.55;99679.25;6094977;29;19927;-71
2021/05/06 13:12:42;;;;;;;;;;;;;;;6.25;87.67;99687.63;6094229;29;19983;-72
2021/05/06 13:15:47;;;;;;;;;;;;;;;6.47;87.30;99679.19;6093941;29;19963;-71
2021/05/06 13:18:57;;;;;;;;;;;;;;;6.32;87.39;99688.41;6093350;29;19927;-72
2021/05/06 13:22:04;;;;;;;0.97;0.97;;;;;;;6.04;88.24;99696.06;6093820;29;20561;-71
2021/05/06 13:25:08;;;;;;;1.27;1.00;;;;;;;6.14;86.44;99704.53;6093610;29;20221;-72
2021/05/06 13:28:14;;;;;;;1.13;1.13;;;;;;;6.26;86.09;99705.56;6093503;29;20204;-72
2021/05/06 13:31:20;;;;;;;0.97;0.97;;;;;;;6.37;85.36;99701.31;6094516;29;20199;-73
2021/05/06 13:34:27;;;;;;;1.40;1.00;;;;;;;6.15;86.88;99703.50;6096694;29;20386;-72
2021/05/06 13:37:34;;;;;;;1.00;1.00;;;;;;;6.26;86.37;99716.38;6097498;29;20216;-71
2021/05/06 13:40:38;;;;;;;1.00;1.00;;;;;;;6.32;85.62;99716.56;6096617;29;20478;-72
2021/05/06 13:43:41;;;;;;;1.10;1.10;;;;;;;6.19;86.23;99699.31;6097545;29;20199;-72
2021/05/06 13:46:52;;;;;;;0.90;0.90;;;;;;;6.21;85.92;99724.28;6097364;29;20216;-72
2021/05/06 13:49:56;;;;;;;1.10;1.10;;;;;;;6.22;85.79;99731.38;6096315;29;20507;-72
2021/05/06 13:53:00;;;;;;;1.10;1.10;;;;;;;6.19;86.42;99720.97;6097489;29;20259;-73
2021/05/06 13:56:04;;;;;;;0.90;0.90;;;;;;;6.13;86.84;99732.69;6097275;29;20296;-72
2021/05/06 13:59:10;;;;;;;1.10;1.10;;;;;;;6.16;86.72;99726.81;6097391;29;20220;-73
2021/05/06 14:02:18;;;;;;;1.20;1.20;;;;;;;6.20;87.09;99738.06;6096722;29;20197;-72
2021/05/06 14:05:22;;;;;;;1.10;1.10;;;;;;;6.20;87.15;99733.50;6096630;29;20192;-71
2021/05/06 14:08:26;;;;;;;1.00;1.00;;;;;;;6.17;87.45;99739.34;6096066;29;20219;-72
2021/05/06 14:11:29;;;;;;;1.40;1.40;;;;;;;6.09;87.49;99736.03;6096409;29;20252;-71
2021/05/06 14:14:39;;;;;;;1.27;1.27;;;;;;;6.39;86.22;99744.44;6097140;29;20279;-72
2021/05/06 14:17:43;;;;;;;0.90;0.90;;;;;;;6.14;86.02;99745.16;6095994;29;20434;-72
2021/05/06 14:20:47;;;;;;;1.10;1.10;;;;;;;6.05;85.92;99751.88;6097310;29;20228;-72
2021/05/06 14:23:53;;;;;;;1.10;1.10;;;;;;;5.94;85.68;99755.25;6096792;29;20230;-72
2021/05/06 14:26:59;;;;;;;1.37;1.37;;;;;;;5.93;86.49;99753.56;6096997;29;20197;-72
2021/05/06 14:30:03;;;;;;;1.10;1.10;;;;;;;5.97;86.58;99759.41;6095472;29;20482;-74
2021/05/06 14:33:08;;;;;;;1.20;1.20;;;;;;;5.93;86.50;99760.88;6095661;29;20217;-72
2021/05/06 14:36:12;;;;;;;1.20;1.20;;;;;;;6.01;85.82;99761.47;6095548;29;20532;-72
2021/05/06 14:39:15;;;;;;;1.17;1.17;;;;;;;5.94;85.71;99760.66;6095365;29;20284;-72
2021/05/06 14:42:19;;;;;;;1.60;1.10;;;;;;;6.02;85.58;99762.31;6095338;29;20439;-72
2021/05/06 14:45:24;;;;;;;1.10;1.10;;;;;;;6.17;85.42;99777.25;6096067;29;20193;-74
2021/05/06 14:48:28;;;;;;;1.00;1.00;;;;;;;6.17;84.57;99766.41;6095670;29;20195;-72
2021/05/06 14:51:32;;;;;;;1.30;1.30;;;;;;;6.07;84.91;99785.00;6094057;29;20252;-73
2021/05/06 14:54:35;;;;;;;1.17;1.17;;;;;;;6.22;84.81;99774.72;6096179;29;20199;-72
2021/05/06 14:57:39;;;;;;;1.00;1.00;;;;;;;6.19;83.93;99785.97;6078843;29;20372;-72
2021/05/06 15:00:42;;;;;;;1.33;1.20;;;;;;;6.22;84.26;99790.13;6096023;29;20199;-72
2021/05/06 15:03:46;;;;;;;1.10;1.10;;;;;;;6.15;83.89;99784.75;6095153;29;20248;-72
2021/05/06 15:06:49;;;;;;;1.30;1.30;;;;;;;6.18;82.47;99789.75;6095620;29;20193;-73
2021/05/06 15:09:52;;;;;;;2.20;1.00;;;;;;;6.05;82.29;99800.63;6094895;29;20475;-73
2021/05/06 15:12:55;;;;;;;1.00;1.00;;;;;;;6.02;82.18;99787.50;6094844;29;20192;-73
2021/05/06 15:15:59;;;;;;;1.20;1.20;;;;;;;5.95;81.63;99793.97;6078890;29;20208;-72
2021/05/06 15:19:03;;;;;;;1.20;1.20;;;;;;;5.94;81.79;99793.16;6094682;29;20490;-72
2021/05/06 15:22:06;;;;;;;1.10;1.10;;;;;;;5.82;82.86;99800.22;6095724;29;20190;-72
2021/05/06 15:25:24;;;;;;;1.20;1.20;;;;;;;5.86;82.37;99796.06;6095304;29;20189;-71
2021/05/06 15:28:27;;;;;;;1.10;1.10;;;;;;;5.93;83.83;99807.72;6095831;29;20268;-73
2021/05/06 15:31:30;;;;;;;3.00;1.30;;;;;;;6.05;82.84;99806.03;6077565;29;20207;-72
2021/05/06 15:34:34;;;;;;;1.23;1.23;;;;;;;5.96;80.93;99817.28;6094868;29;20192;-73
2021/05/06 15:37:40;;;;;;;1.23;1.23;;;;;;;5.86;82.41;99806.91;6095104;29;20221;-72
2021/05/06 15:40:43;;;;;;;1.00;1.00;;;;;;;5.80;81.74;99807.75;6095735;29;20192;-73
2021/05/06 15:43:46;;;;;;;1.10;1.10;;;;;;;5.98;81.39;99816.06;6095159;29;20357;-71
2021/05/06 15:46:59;;;;;;;1.30;1.30;;;;;;;5.65;82.07;99755.69;6093927;29;20383;-72
2021/05/06 15:50:05;;;;;;;1.33;1.33;;;;;;;5.92;82.83;99822.31;6095387;29;20244;-72
2021/05/06 15:53:10;;;;;;;1.23;1.23;;;;;;;6.04;81.06;99825.19;6094605;29;20370;-72
2021/05/06 15:56:13;;;;;;;1.53;1.53;;;;;;;5.67;81.51;99795.03;6093184;29;20373;-72
2021/05/06 15:59:17;;;;;;;1.37;1.30;;;;;;;5.92;81.26;99843.97;6095289;29;20224;-72
2021/05/06 16:02:22;;;;;;;1.40;1.40;;;;;;;6.09;81.32;99839.75;6095133;29;20260;-72
2021/05/06 16:05:28;;;;;;;2.77;1.50;;;;;;;6.01;79.75;99831.84;6094849;29;20216;-72
2021/05/06 16:08:35;;;;;;;1.80;1.73;;;;;;;5.98;80.28;99843.13;6094353;29;20541;-72
2021/05/06 16:11:38;;;;;;;1.50;1.50;;;;;;;5.86;80.56;99850.22;6094888;29;20205;-73
2021/05/06 16:14:41;;;;;;;1.40;1.40;;;;;;;5.89;81.94;99849.78;6094869;29;20197;-72
2021/05/06 16:17:45;;;;;;;2.20;1.40;;;;;;;5.85;79.39;99853.97;6094115;29;20251;-72
2021/05/06 16:20:49;;;;;;;1.70;1.60;;;;;;;5.85;78.70;99853.97;6094514;29;20198;-72
2021/05/06 16:23:52;;;;;;;1.43;1.43;;;;;;;5.94;79.08;99860.81;6093368;29;20463;-72
2021/05/06 16:26:55;;;;;;;1.40;1.40;;;;;;;5.96;78.86;99861.44;6093948;29;20310;-72
2021/05/06 16:29:59;;;;;;;1.57;1.57;;;;;;;5.95;78.09;99876.03;6093772;29;20213;-72
2021/05/06 16:33:05;;;;;;;1.83;1.73;;;;;;;6.12;78.46;99865.59;6093142;29;20380;-73
2021/05/06 16:36:15;;;;;;;1.63;1.63;;;;;;;5.96;78.82;99876.84;6094079;29;20232;-71
2021/05/06 16:39:29;;;;;;;1.53;1.43;;;;;;;5.88;78.03;99875.19;6094503;29;20218;-72
2021/05/06 16:42:45;;;;;;;1.50;1.50;;;;;;;5.72;78.28;99886.44;6093502;29;20435;-72
2021/05/06 16:45:48;;;;;;;2.93;1.33;;;;;;;5.57;80.25;99878.50;6094675;29;20216;-71
2021/05/06 16:48:52;;;;;;;1.30;1.30;;;;;;;5.78;79.66;99880.16;6094016;29;20241;-71
2021/05/06 16:51:56;;;;;;;2.20;2.07;;;;;;;5.86;78.85;99887.28;6093333;29;20451;-72
2021/05/06 16:55:01;;;;;;;1.70;1.70;;;;;;;5.96;78.28;99903.91;6093486;29;20273;-72
2021/05/06 16:58:06;;;;;;;1.50;1.50;;;;;;;5.97;77.36;99890.19;6094546;29;20250;-72
2021/05/06 17:01:11;;;;;;;1.57;1.57;;;;;;;5.93;77.05;99894.34;6093196;29;20241;-72
2021/05/06 17:04:14;;;;;;;1.40;1.40;;;;;;;5.69;77.98;99876.03;6094055;29;20198;-73
2021/05/06 17:07:19;;;;;;;1.70;1.60;;;;;;;5.89;78.12;99892.28;6096729;29;20198;-72
2021/05/06 17:10:24;;;;;;;1.93;1.90;;;;;;;5.72;78.59;99891.84;6097598;29;20506;-71
2021/05/06 17:13:27;;;;;;;1.97;1.87;;;;;;;5.59;78.83;99897.25;6098596;29;20200;-71
2021/05/06 17:16:38;;;;;;;2.00;1.90;;;;;;;5.75;78.37;99902.25;6098463;29;20244;-71
2021/05/06 17:19:42;;;;;;;1.30;1.30;;;;;;;5.75;78.50;99896.00;6097490;29;20231;-71
2021/05/06 17:22:46;;;;;;;2.23;2.10;;;;;;;5.71;79.42;99906.41;6098972;29;20259;-72
2021/05/06 17:25:51;;;;;;;2.00;1.90;;;;;;;5.65;80.34;99896.41;6097278;29;20388;-72
2021/05/06 17:28:54;;;;;;;2.10;1.97;;;;;;;5.85;78.83;99929.78;6098473;29;20197;-72
2021/05/06 17:31:57;;;;;;;2.00;1.90;;;;;;;5.69;78.58;99924.72;6081340;29;20207;-72
2021/05/06 17:35:00;;;;;;;1.50;1.50;;;;;;;5.74;79.27;99919.53;6097658;29;20262;-71
2021/05/06 17:38:06;;;;;;;1.70;1.70;;;;;;;5.44;79.91;99905.56;6098177;29;20199;-72
2021/05/06 17:41:10;;;;;;;5.70;5.40;;;;;;;5.70;79.67;99931.78;6097637;29;20215;-72
2021/05/06 17:44:13;;;;;;;3.23;3.13;;;;;;;5.54;79.62;99932.22;6096647;29;20420;-72
2021/05/06 17:47:16;;;;;;;1.60;1.60;;;;;;;5.26;80.80;99939.66;6097309;29;20240;-72
2021/05/06 17:50:24;;;;;;;1.63;1.53;;;;;;;5.36;81.35;99940.09;6097848;29;20226;-72
2021/05/06 17:53:29;;;;;;;1.50;1.50;;;;;;;5.48;80.56;99938.44;6098155;29;20196;-71
2021/05/06 17:56:32;;;;;;;1.40;1.40;;;;;;;5.44;81.26;99942.59;6096687;29;20506;-71